createdAt,value
2017-06-11T00:00:50.200Z,1011.71
2017-06-11T00:10:50.155Z,1011.64
2017-06-11T00:20:50.226Z,1011.67
2017-06-11T00:30:50.200Z,1011.63
2017-06-11T00:40:50.162Z,1011.54
2017-06-11T00:50:52.160Z,1011.46
2017-06-11T01:10:50.229Z,1011.54
2017-06-11T01:20:50.229Z,1011.53
2017-06-11T01:30:51.190Z,1011.53
2017-06-11T01:40:50.221Z,1011.45
2017-06-11T01:50:50.185Z,1011.46
2017-06-11T02:00:50.154Z,1011.41
2017-06-11T02:10:50.207Z,1011.32
2017-06-11T02:20:50.289Z,1011.33
2017-06-11T02:30:52.266Z,1011.31
2017-06-11T02:40:50.176Z,1011.35
2017-06-11T02:50:51.183Z,1011.31
2017-06-11T03:00:50.232Z,1011.27
2017-06-11T03:10:50.251Z,1011.28
2017-06-11T03:20:50.200Z,1011.27
2017-06-11T03:30:50.200Z,1011.16
2017-06-11T03:40:50.246Z,1011.11
2017-06-11T03:50:50.231Z,1011.08
2017-06-11T04:00:50.130Z,1011.15
2017-06-11T04:10:50.215Z,1011.21
2017-06-11T04:20:50.155Z,1011.1
2017-06-11T04:30:50.227Z,1011.2
2017-06-11T04:40:50.190Z,1011.2
2017-06-11T04:50:50.159Z,1011.14
2017-06-11T05:00:50.271Z,1011.08
2017-06-11T05:10:50.165Z,1011.04
2017-06-11T05:20:50.293Z,1011.08
2017-06-11T05:30:50.194Z,1010.91
2017-06-11T05:40:50.148Z,1010.96
2017-06-11T05:50:50.215Z,1010.98
2017-06-11T06:00:50.245Z,1011.06
2017-06-11T06:10:50.149Z,1011.06
2017-06-11T06:20:50.199Z,1011.09
2017-06-11T06:30:50.208Z,1011.08
2017-06-11T06:40:50.224Z,1010.96
2017-06-11T06:50:50.180Z,1010.96
2017-06-11T07:00:50.251Z,1010.95
2017-06-11T07:10:50.392Z,1010.94
2017-06-11T07:20:50.244Z,1010.9
2017-06-11T07:30:50.228Z,1010.93
2017-06-11T07:40:50.196Z,1010.79
2017-06-11T07:50:50.264Z,1010.88
2017-06-11T08:00:50.217Z,1010.62
2017-06-11T08:10:50.281Z,1010.58
2017-06-11T08:20:50.246Z,1010.55
2017-06-11T08:30:50.301Z,1010.42
2017-06-11T08:40:50.261Z,1010.36
2017-06-11T08:50:50.220Z,1010.36
2017-06-11T09:00:50.291Z,1010.23
2017-06-11T09:10:50.239Z,1010.18
2017-06-11T09:20:50.194Z,1010.09
2017-06-11T09:30:50.276Z,1009.97
2017-06-11T09:40:50.233Z,1009.9
2017-06-11T09:50:50.301Z,1009.76
2017-06-11T10:00:50.247Z,1009.71
2017-06-11T10:10:50.203Z,1009.58
2017-06-11T10:20:50.282Z,1009.45
2017-06-11T10:30:50.234Z,1009.43
2017-06-11T10:40:50.303Z,1009.37
2017-06-11T10:50:50.267Z,1009.21
2017-06-11T11:00:50.233Z,1009.07
2017-06-11T11:10:50.289Z,1008.77
2017-06-11T11:20:50.258Z,1008.78
2017-06-11T11:30:50.315Z,1008.64
2017-06-11T11:40:51.451Z,1008.48
2017-06-11T11:50:50.338Z,1008.32
2017-06-11T12:00:50.305Z,1008.11
2017-06-11T12:10:50.263Z,1008.05
2017-06-11T12:20:50.329Z,1007.83
2017-06-11T12:30:51.305Z,1007.73
2017-06-11T12:40:50.349Z,1007.6
2017-06-11T12:50:50.299Z,1007.47
2017-06-11T13:00:50.267Z,1007.44
2017-06-11T13:10:50.337Z,1007.14
2017-06-11T13:20:50.305Z,1007.09
2017-06-11T13:30:50.356Z,1006.94
2017-06-11T13:40:50.321Z,1006.76
2017-06-11T13:50:50.273Z,1006.63
2017-06-11T14:00:50.334Z,1006.47
2017-06-11T14:10:50.362Z,1006.44
2017-06-11T14:20:50.380Z,1006.24
2017-06-11T14:30:50.324Z,1006.19
2017-06-11T14:40:50.287Z,1006.25
2017-06-11T14:50:51.393Z,1006.22
2017-06-11T15:00:50.316Z,1006.26
2017-06-11T15:10:50.367Z,1006.22
2017-06-11T15:20:50.337Z,1006
2017-06-11T15:30:50.420Z,1005.91
2017-06-11T15:40:50.294Z,1005.82
2017-06-11T15:50:50.306Z,1005.57
2017-06-11T16:00:50.299Z,1005.42
2017-06-11T16:10:50.295Z,1005.33
2017-06-11T16:20:50.300Z,1005.27
2017-06-11T16:30:50.300Z,1005.29
2017-06-11T16:40:50.297Z,1005.27
2017-06-11T16:50:50.304Z,1005.31
2017-06-11T17:00:50.303Z,1005.28
2017-06-11T17:10:50.296Z,1005.6
2017-06-11T17:20:50.307Z,1005.5
2017-06-11T17:30:50.306Z,1005.39
2017-06-11T17:40:50.311Z,1005.21
2017-06-11T17:50:50.315Z,1004.97
2017-06-11T18:00:50.310Z,1004.68
2017-06-11T18:10:50.319Z,1004.49
2017-06-11T18:20:50.310Z,1004.31
2017-06-11T18:30:50.324Z,1004.14
2017-06-11T18:40:50.344Z,1003.62
2017-06-11T18:50:50.318Z,1004.04
2017-06-11T19:00:50.320Z,1004.16
2017-06-11T19:10:50.317Z,1004.15
2017-06-11T19:20:50.327Z,1004.06
2017-06-11T19:30:50.353Z,1004
2017-06-11T19:40:50.561Z,1003.93
2017-06-11T19:50:50.324Z,1003.97
2017-06-11T20:00:50.358Z,1004.25
2017-06-11T20:10:50.424Z,1004.33
2017-06-11T20:20:50.450Z,1004.31
2017-06-11T20:30:50.419Z,1004.4
2017-06-11T20:40:50.412Z,1004.46
2017-06-11T20:50:50.448Z,1004.5
2017-06-11T21:10:58.018Z,1004.78
2017-06-11T22:20:50.340Z,1004.95
2017-06-11T22:30:50.428Z,1005.13
2017-06-11T22:40:50.416Z,1005.09
2017-06-11T22:50:50.470Z,1005.18
2017-06-11T23:00:50.421Z,1005.09
2017-06-11T23:10:50.415Z,1005.17
2017-06-11T23:20:50.501Z,1004.99
2017-06-11T23:30:50.404Z,1004.9
2017-06-11T23:40:50.467Z,1004.97
2017-06-11T23:50:50.426Z,1004.94
